.
WxDataArchive / Data Records for 2007-01-12
2007-01-11 January 2007 2007-01-13

Data Records for Friday, 12 January 2007

Time	Temp	Chill	HIndex	Humid	Dewpt	 Wind 	HiWind	WindDir	Rain 	Barom 
-----	----	-----	------	-----	-----	------	------	-------	-----	----- 
00:00	41.5	39.1	41.5	77	34.8	4	10	248	0.00	30.027 
00:05	41.8	38.6	41.8	77	35.1	5	17	248	0.00	30.024 
00:10	41.9	39.5	41.9	76	34.9	4	10	248	0.00	30.022 
00:15	42.1	39.7	42.1	75	34.8	4	14	248	0.00	30.021 
00:20	42.2	42.2	42.2	75	34.9	3	7	248	0.00	30.020 
00:25	42.2	42.2	42.2	75	34.9	3	12	248	0.00	30.017 
00:30	42.3	40.0	42.3	75	35.0	4	9	248	0.00	30.016 
00:35	42.3	42.3	42.3	74	34.6	3	6	248	0.00	30.013 
00:40	42.3	42.3	42.3	74	34.6	3	7	270	0.00	30.015 
00:45	42.5	40.2	42.5	74	34.8	4	14	248	0.00	30.017 
00:50	42.6	40.3	42.6	73	34.6	4	9	248	0.00	30.015 
00:55	42.6	42.6	42.6	73	34.6	3	9	248	0.00	30.017 
01:00	42.8	40.6	42.8	73	34.8	4	10	248	0.00	30.015 
01:05	42.8	42.8	42.8	73	34.8	3	5	248	0.00	30.012 
01:10	42.9	40.7	42.9	73	34.9	4	9	248	0.00	30.016 
01:15	43.1	43.1	43.1	72	34.7	3	10	248	0.00	30.018 
01:20	43.1	40.9	43.1	72	34.7	4	10	248	0.00	30.017 
01:25	43.2	43.2	43.2	72	34.8	3	7	248	0.00	30.019 
01:30	43.2	43.2	43.2	72	34.8	3	7	270	0.00	30.020 
01:35	43.3	41.1	43.3	72	34.9	4	10	270	0.00	30.017 
01:40	43.3	43.3	43.3	72	34.9	3	10	248	0.00	30.019 
01:45	43.3	43.3	43.3	72	34.9	3	9	248	0.00	30.022 
01:50	43.3	43.3	43.3	72	34.9	3	10	248	0.00	30.023 
01:55	43.5	41.4	43.5	72	35.1	4	11	270	0.00	30.024 
02:00	43.6	41.5	43.6	72	35.2	4	10	270	0.00	30.025 
02:05	43.6	41.5	43.6	72	35.2	4	11	270	0.00	30.024 
02:10	43.6	41.5	43.6	73	35.5	4	10	270	0.00	30.024 
02:15	43.6	43.6	43.6	73	35.5	3	6	248	0.00	30.025 
02:20	43.6	43.6	43.6	73	35.5	3	9	248	0.00	30.025 
02:25	43.8	43.8	43.8	73	35.7	3	9	248	0.00	30.027 
02:30	43.9	43.9	43.9	72	35.5	3	11	248	0.00	30.026 
02:35	44.1	42.1	44.1	72	35.7	4	10	248	0.00	30.031 
02:40	44.3	42.3	44.3	71	35.5	4	9	248	0.00	30.031 
02:45	44.5	42.5	44.5	71	35.7	4	10	248	0.00	30.037 
02:50	44.6	44.6	44.6	71	35.8	3	7	248	0.00	30.036 
02:55	44.8	42.9	44.8	71	36.0	4	8	248	0.00	30.037 
03:00	44.8	44.8	44.8	72	36.3	3	13	248	0.00	30.038 
03:05	44.8	42.9	44.8	72	36.3	4	9	248	0.00	30.037 
03:10	44.8	42.9	44.8	73	36.7	4	9	248	0.00	30.036 
03:15	44.9	43.0	44.9	73	36.8	4	10	248	0.00	30.038 
03:20	44.8	44.8	44.8	73	36.7	3	7	248	0.00	30.039 
03:25	44.9	43.0	44.9	73	36.8	4	10	248	0.00	30.039 
03:30	44.9	43.0	44.9	72	36.4	4	12	248	0.00	30.040 
03:35	44.9	43.0	44.9	72	36.4	4	8	248	0.00	30.040 
03:40	45.1	45.1	45.1	72	36.6	3	9	248	0.00	30.041 
03:45	45.1	43.2	45.1	72	36.6	4	10	248	0.00	30.042 
03:50	45.4	43.6	45.4	71	36.6	4	12	248	0.00	30.043 
03:55	45.4	45.4	45.4	72	36.9	3	9	248	0.00	30.043 
04:00	45.5	42.9	45.5	71	36.7	5	10	248	0.00	30.044 
04:05	45.5	45.5	45.5	71	36.7	3	6	248	0.00	30.047 
04:10	45.7	45.7	45.7	71	36.8	3	7	248	0.00	30.047 
04:15	45.8	44.0	45.8	71	36.9	4	11	248	0.00	30.046 
04:20	45.8	45.8	45.8	71	36.9	3	6	270	0.00	30.045 
04:25	46.0	46.0	46.0	71	37.1	3	7	248	0.00	30.043 
04:30	46.0	46.0	46.0	71	37.1	3	7	248	0.00	30.045 
04:35	46.1	46.1	46.1	71	37.2	3	6	248	0.00	30.044 
04:40	46.1	46.1	46.1	71	37.2	3	10	248	0.00	30.045 
04:45	46.2	46.2	46.2	71	37.3	3	5	248	0.00	30.047 
04:50	46.2	46.2	46.2	71	37.3	3	9	248	0.00	30.048 
04:55	46.4	46.4	46.4	71	37.5	3	7	248	0.00	30.048 
05:00	46.4	46.4	46.4	71	37.5	2	6	248	0.00	30.050 
05:05	46.4	46.4	46.4	71	37.5	3	6	248	0.00	30.053 
05:10	46.4	46.4	46.4	71	37.5	3	5	248	0.00	30.053 
05:15	46.4	46.4	46.4	71	37.5	2	6	248	0.00	30.053 
05:20	46.4	46.4	46.4	71	37.5	2	4	248	0.00	30.054 
05:25	46.4	46.4	46.4	72	37.9	2	6	248	0.00	30.054 
05:30	46.4	46.4	46.4	72	37.9	2	6	248	0.00	30.055 
05:35	46.5	46.5	46.5	72	38.0	2	5	248	0.00	30.056 
05:40	46.5	46.5	46.5	72	38.0	2	9	225	0.00	30.056 
05:45	46.7	46.7	46.7	73	38.5	1	3	248	0.00	30.057 
05:50	46.8	46.8	46.8	72	38.3	2	6	248	0.00	30.059 
05:55	46.8	46.8	46.8	73	38.6	2	5	248	0.00	30.057 
06:00	47.0	47.0	47.0	73	38.8	2	5	248	0.00	30.057 
06:05	47.0	47.0	47.0	73	38.8	2	5	248	0.00	30.058 
06:10	47.1	47.1	47.1	73	38.9	2	6	248	0.00	30.063 
06:15	47.3	47.3	47.3	73	39.1	2	6	248	0.00	30.062 
06:20	47.4	47.4	47.4	73	39.2	2	6	248	0.00	30.066 
06:25	47.6	47.6	47.6	73	39.4	2	9	248	0.00	30.068 
06:30	47.6	47.6	47.6	73	39.4	2	5	248	0.00	30.067 
06:35	47.7	47.7	47.7	73	39.5	2	4	248	0.00	30.068 
06:40	47.9	47.9	47.9	73	39.7	2	5	248	0.00	30.068 
06:45	48.0	48.0	48.0	73	39.8	3	11	248	0.00	30.069 
06:50	48.2	48.2	48.2	72	39.6	3	9	248	0.00	30.070 
06:55	48.5	48.5	48.5	72	39.9	3	7	248	0.00	30.074 
07:00	48.6	48.6	48.6	72	40.0	3	10	248	0.00	30.076 
07:05	48.9	47.6	48.9	72	40.3	4	9	248	0.00	30.081 
07:10	49.1	49.1	49.1	72	40.5	3	11	248	0.00	30.082 
07:15	49.2	47.9	49.2	72	40.6	4	10	248	0.00	30.082 
07:20	49.4	48.2	49.4	72	40.8	4	7	248	0.00	30.083 
07:25	49.5	49.5	49.5	72	40.9	3	9	248	0.00	30.081 
07:30	49.5	49.5	49.5	72	40.9	3	7	248	0.00	30.084 
07:35	49.5	49.5	49.5	72	40.9	3	6	248	0.00	30.086 
07:40	49.6	49.6	49.6	73	41.3	3	12	248	0.00	30.086 
07:45	49.6	48.4	49.6	73	41.3	4	9	248	0.00	30.089 
07:50	49.8	48.6	49.8	73	41.5	4	12	248	0.00	30.092 
07:55	49.8	49.8	49.8	73	41.5	3	8	248	0.00	30.093 
08:00	49.8	49.8	49.8	73	41.5	3	9	248	0.00	30.094 
08:05	49.8	49.8	49.8	73	41.5	2	7	248	0.00	30.093 
08:10	49.8	49.8	49.8	74	41.9	2	6	248	0.00	30.092 
08:15	49.9	49.9	49.9	74	41.9	3	7	248	0.00	30.091 
08:20	49.9	49.9	49.9	74	41.9	3	6	248	0.00	30.087 
08:25	49.9	49.9	49.9	74	41.9	2	10	270	0.00	30.090 
08:30	49.9	49.9	49.9	74	41.9	3	9	248	0.00	30.089 
08:35	49.9	49.9	49.9	75	42.3	2	6	248	0.00	30.089 
08:40	50.1	50.1	50.1	75	42.5	3	6	248	0.00	30.092 
08:45	50.1	50.1	50.1	75	42.5	2	6	248	0.00	30.095 
08:50	50.1	50.1	50.1	75	42.5	2	5	248	0.00	30.097 
08:55	50.1	50.1	50.1	76	42.8	2	7	248	0.00	30.097 
09:00	50.1	50.1	50.1	76	42.8	2	9	248	0.00	30.098 
09:05	50.1	50.1	50.1	76	42.8	2	6	248	0.00	30.100 
09:10	50.1	50.1	50.1	76	42.8	2	5	248	0.00	30.101 
09:15	50.1	50.1	50.1	77	43.2	1	5	248	0.00	30.101 
09:20	50.1	50.1	50.1	77	43.2	2	5	248	0.00	30.106 
09:25	50.1	50.1	50.1	77	43.2	1	4	248	0.00	30.104 
09:30	49.9	49.9	49.9	78	43.3	1	5	248	0.00	30.105 
09:35	49.9	49.9	49.9	78	43.3	1	5	225	0.00	30.108 
09:40	49.8	49.8	49.8	78	43.2	0	2	225	0.00	30.112 
09:45	49.8	49.8	49.8	78	43.2	0	3	202	0.00	30.113 
09:50	49.6	49.6	49.6	78	43.0	1	4	248	0.00	30.115 
09:55	49.6	49.6	49.6	79	43.4	1	6	248	0.00	30.115 
10:00	49.6	49.6	49.6	79	43.4	2	4	270	0.00	30.116 
10:05	49.6	49.6	49.6	79	43.4	2	6	248	0.00	30.119 
10:10	49.8	49.8	49.8	79	43.6	1	6	248	0.00	30.119 
10:15	49.8	49.8	49.8	79	43.6	1	3	248	0.00	30.119 
10:20	49.9	49.9	49.9	79	43.6	2	5	248	0.00	30.120 
10:25	50.1	50.1	50.1	79	43.8	2	6	248	0.00	30.122 
10:30	50.4	50.4	50.4	79	44.1	2	5	248	0.00	30.127 
10:35	50.5	50.5	50.5	79	44.2	2	4	270	0.00	30.128 
10:40	50.8	50.8	50.8	79	44.5	2	6	248	0.00	30.130 
10:45	51.0	51.0	51.0	79	44.7	2	5	248	0.00	30.132 
10:50	51.0	51.0	51.0	79	44.7	2	7	248	0.00	30.132 
10:55	51.1	51.1	51.1	79	44.8	3	9	225	0.00	30.130 
11:00	51.1	51.1	51.1	79	44.8	3	7	248	0.00	30.130 
11:05	51.3	51.3	51.3	80	45.3	3	7	248	0.00	30.128 
11:10	51.3	51.3	51.3	80	45.3	2	5	248	0.00	30.126 
11:15	51.4	51.4	51.4	80	45.4	2	5	248	0.00	30.124 
11:20	51.4	51.4	51.4	80	45.4	2	5	248	0.00	30.122 
11:25	51.6	51.6	51.6	80	45.6	1	3	248	0.00	30.122 
11:30	51.6	51.6	51.6	81	46.0	1	3	270	0.00	30.117 
11:35	51.7	51.7	51.7	81	46.1	1	4	248	0.00	30.115 
11:40	51.9	51.9	51.9	81	46.3	1	5	248	0.00	30.111 
11:45	52.2	52.2	52.2	81	46.5	2	9	248	0.00	30.111 
11:50	52.2	52.2	52.2	80	46.2	2	9	248	0.00	30.110 
11:55	52.2	52.2	52.2	81	46.5	1	3	292	0.00	30.107 
12:00	52.2	52.2	52.2	81	46.5	2	6	248	0.00	30.102 
12:05	52.3	52.3	52.3	81	46.6	2	6	248	0.00	30.096 
12:10	52.3	52.3	52.3	81	46.6	1	6	225	0.00	30.095 
12:15	52.5	52.5	52.5	81	46.8	2	7	248	0.00	30.093 
12:20	52.5	52.5	52.5	81	46.8	2	5	248	0.00	30.093 
12:25	52.6	52.6	52.6	82	47.3	2	6	248	0.00	30.088 
12:30	52.8	52.8	52.8	82	47.5	3	7	270	0.00	30.084 
12:35	52.9	52.9	52.9	82	47.6	3	6	248	0.00	30.088 
12:40	52.9	52.9	52.9	82	47.6	3	8	248	0.00	30.086 
12:45	52.9	52.9	52.9	82	47.6	3	10	248	0.00	30.078 
12:50	53.1	53.1	53.1	82	47.8	2	5	248	0.00	30.077 
12:55	53.2	53.2	53.2	82	47.8	2	9	248	0.00	30.074 
13:00	53.2	53.2	53.2	83	48.2	3	10	248	0.00	30.076 
13:05	53.2	53.2	53.2	83	48.2	3	7	248	0.00	30.078 
13:10	53.2	53.2	53.2	83	48.2	3	7	248	0.00	30.076 
13:15	53.1	53.1	53.1	84	48.4	4	11	248	0.00	30.073 
13:20	53.1	53.1	53.1	84	48.4	3	6	248	0.00	30.069 
13:25	52.9	52.9	52.9	84	48.2	4	7	248	0.00	30.069 
13:30	52.9	52.9	52.9	84	48.2	4	9	248	0.00	30.062 
13:35	52.8	52.8	52.8	85	48.4	2	7	248	0.00	30.063 
13:40	52.8	52.8	52.8	85	48.4	3	6	248	0.00	30.063 
13:45	52.8	52.8	52.8	85	48.4	3	9	248	0.00	30.062 
13:50	52.6	52.6	52.6	86	48.5	4	10	270	0.00	30.059 
13:55	52.6	52.6	52.6	86	48.5	3	7	248	0.00	30.058 
14:00	52.5	52.5	52.5	87	48.7	4	10	270	0.00	30.061 
14:05	52.5	52.5	52.5	87	48.7	3	8	248	0.00	30.062 
14:10	52.3	52.3	52.3	89	49.2	3	11	248	0.01	30.063 
14:15	52.0	52.0	52.0	90	49.2	4	11	248	0.02	30.067 
14:20	51.9	51.9	51.9	91	49.4	2	4	248	0.01	30.069 
14:25	51.7	51.7	51.7	92	49.5	2	6	248	0.01	30.067 
14:30	51.6	51.6	51.6	93	49.6	3	9	248	0.01	30.071 
14:35	51.4	51.4	51.4	93	49.4	2	9	248	0.01	30.073 
14:40	51.4	51.4	51.4	93	49.4	2	6	248	0.01	30.068 
14:45	51.4	51.4	51.4	94	49.7	1	3	248	0.00	30.065 
14:50	51.4	51.4	51.4	94	49.7	1	5	248	0.01	30.069 
14:55	51.3	51.3	51.3	94	49.6	1	4	248	0.00	30.070 
15:00	51.3	51.3	51.3	95	49.9	1	3	248	0.01	30.066 
15:05	51.4	51.4	51.4	95	50.0	1	2	248	0.00	30.068 
15:10	51.4	51.4	51.4	95	50.0	2	4	248	0.00	30.067 
15:15	51.4	51.4	51.4	95	50.0	2	5	248	0.01	30.063 
15:20	51.4	51.4	51.4	95	50.0	1	5	248	0.00	30.063 
15:25	51.4	51.4	51.4	95	50.0	2	5	248	0.00	30.062 
15:30	51.4	51.4	51.4	95	50.0	1	4	248	0.00	30.060 
15:35	51.4	51.4	51.4	95	50.0	1	4	248	0.00	30.061 
15:40	51.4	51.4	51.4	96	50.3	1	4	270	0.00	30.062 
15:45	51.4	51.4	51.4	95	50.0	1	5	225	0.00	30.061 
15:50	51.3	51.3	51.3	96	50.2	1	4	248	0.00	30.061 
15:55	51.3	51.3	51.3	96	50.2	2	5	248	0.00	30.064 
16:00	51.1	51.1	51.1	96	50.0	2	7	248	0.01	30.064 
16:05	51.1	51.1	51.1	96	50.0	2	6	248	0.00	30.064 
16:10	51.1	51.1	51.1	96	50.0	2	4	248	0.00	30.066 
16:15	51.1	51.1	51.1	96	50.0	1	5	248	0.00	30.064 
16:20	51.1	51.1	51.1	96	50.0	2	5	270	0.00	30.065 
16:25	51.1	51.1	51.1	96	50.0	2	4	248	0.00	30.066 
16:30	51.1	51.1	51.1	96	50.0	2	6	248	0.00	30.071 
16:35	51.1	51.1	51.1	96	50.0	1	5	248	0.00	30.070 
16:40	51.1	51.1	51.1	96	50.0	2	5	248	0.00	30.075 
16:45	51.1	51.1	51.1	96	50.0	2	5	248	0.00	30.074 
16:50	51.1	51.1	51.1	96	50.0	2	4	248	0.00	30.076 
16:55	51.1	51.1	51.1	96	50.0	1	3	248	0.01	30.075 
17:00	51.1	51.1	51.1	96	50.0	1	5	248	0.00	30.076 
17:05	51.1	51.1	51.1	96	50.0	2	5	248	0.00	30.076 
17:10	51.1	51.1	51.1	96	50.0	2	10	248	0.00	30.078 
17:15	51.1	51.1	51.1	96	50.0	2	10	248	0.00	30.083 
17:20	51.1	51.1	51.1	96	50.0	2	10	248	0.00	30.080 
17:25	51.1	51.1	51.1	96	50.0	2	5	248	0.01	30.083 
17:30	51.1	51.1	51.1	96	50.0	2	5	248	0.00	30.082 
17:35	51.1	51.1	51.1	96	50.0	2	5	248	0.01	30.081 
17:40	51.1	51.1	51.1	96	50.0	2	5	248	0.01	30.080 
17:45	51.1	51.1	51.1	96	50.0	2	5	248	0.01	30.081 
17:50	51.1	51.1	51.1	96	50.0	1	4	248	0.01	30.083 
17:55	51.1	51.1	51.1	97	50.3	2	5	248	0.01	30.084 
18:00	51.1	51.1	51.1	97	50.3	2	4	248	0.00	30.086 
18:05	51.1	51.1	51.1	97	50.3	1	5	248	0.00	30.084 
18:10	51.3	51.3	51.3	97	50.5	2	6	248	0.01	30.089 
18:15	51.3	51.3	51.3	97	50.5	2	6	248	0.00	30.089 
18:20	51.3	51.3	51.3	97	50.5	2	6	248	0.00	30.089 
18:25	51.3	51.3	51.3	97	50.5	2	7	248	0.00	30.089 
18:30	51.3	51.3	51.3	97	50.5	2	7	248	0.00	30.087 
18:35	51.3	51.3	51.3	97	50.5	1	4	248	0.01	30.087 
18:40	51.4	51.4	51.4	97	50.6	2	6	248	0.00	30.085 
18:45	51.4	51.4	51.4	97	50.6	2	4	248	0.00	30.086 
18:50	51.4	51.4	51.4	97	50.6	2	5	248	0.00	30.089 
18:55	51.4	51.4	51.4	97	50.6	2	6	248	0.00	30.088 
19:00	51.4	51.4	51.4	97	50.6	2	5	248	0.00	30.090 
19:05	51.6	51.6	51.6	97	50.8	2	4	248	0.00	30.088 
19:10	51.6	51.6	51.6	97	50.8	2	4	248	0.00	30.087 
19:15	51.6	51.6	51.6	97	50.8	2	5	248	0.00	30.089 
19:20	51.6	51.6	51.6	97	50.8	1	3	225	0.01	30.088 
19:25	51.6	51.6	51.6	97	50.8	1	5	248	0.01	30.089 
19:30	51.6	51.6	51.6	97	50.8	2	4	248	0.01	30.089 
19:35	51.6	51.6	51.6	97	50.8	2	7	248	0.00	30.086 
19:40	51.6	51.6	51.6	97	50.8	2	5	248	0.00	30.086 
19:45	51.6	51.6	51.6	97	50.8	2	5	248	0.00	30.088 
19:50	51.6	51.6	51.6	97	50.8	2	5	248	0.00	30.089 
19:55	51.6	51.6	51.6	97	50.8	1	4	248	0.00	30.089 
20:00	51.7	51.7	51.7	97	50.9	2	7	248	0.01	30.085 
20:05	51.7	51.7	51.7	97	50.9	2	4	248	0.00	30.086 
20:10	51.7	51.7	51.7	97	50.9	2	4	248	0.00	30.086 
20:15	51.7	51.7	51.7	97	50.9	2	5	248	0.00	30.087 
20:20	51.7	51.7	51.7	97	50.9	1	5	248	0.00	30.089 
20:25	51.7	51.7	51.7	97	50.9	2	6	248	0.00	30.092 
20:30	51.9	51.9	51.9	97	51.1	2	5	248	0.01	30.089 
20:35	51.9	51.9	51.9	97	51.1	2	5	248	0.00	30.089 
20:40	51.9	51.9	51.9	97	51.1	1	3	248	0.00	30.090 
20:45	51.9	51.9	51.9	97	51.1	2	5	248	0.00	30.089 
20:50	51.9	51.9	51.9	97	51.1	1	3	270	0.00	30.089 
20:55	51.9	51.9	51.9	97	51.1	1	3	248	0.00	30.089 
21:00	51.9	51.9	51.9	97	51.1	1	4	248	0.00	30.090 
21:05	51.7	51.7	51.7	97	50.9	1	4	248	0.00	30.093 
21:10	51.7	51.7	51.7	97	50.9	1	5	248	0.00	30.091 
21:15	51.7	51.7	51.7	97	50.9	1	2	248	0.00	30.093 
21:20	51.6	51.6	51.6	97	50.8	0	1	248	0.00	30.098 
21:25	51.6	51.6	51.6	97	50.8	0	2	248	0.00	30.098 
21:30	51.4	51.4	51.4	97	50.6	0	1	248	0.01	30.100 
21:35	51.3	51.3	51.3	97	50.5	0	3	248	0.01	30.102 
21:40	51.3	51.3	51.3	97	50.5	0	2	248	0.00	30.097 
21:45	51.1	51.1	51.1	97	50.3	0	1	248	0.00	30.097 
21:50	51.0	51.0	51.0	97	50.2	0	2	248	0.01	30.101 
21:55	50.8	50.8	50.8	97	50.0	0	2	248	0.00	30.102 
22:00	50.5	50.5	50.5	97	49.7	0	2	292	0.01	30.104 
22:05	50.2	50.2	50.2	97	49.4	1	3	292	0.00	30.105 
22:10	49.8	49.8	49.8	97	49.0	1	3	292	0.00	30.106 
22:15	49.5	49.5	49.5	97	48.7	0	2	292	0.01	30.107 
22:20	49.4	49.4	49.4	96	48.3	0	3	270	0.00	30.113 
22:25	49.2	49.2	49.2	96	48.1	0	2	270	0.01	30.115 
22:30	48.9	48.9	48.9	96	47.8	0	2	292	0.00	30.117 
22:35	48.8	48.8	48.8	96	47.7	1	5	315	0.00	30.121 
22:40	48.6	48.6	48.6	96	47.5	0	2	315	0.01	30.121 
22:45	48.2	48.2	48.2	96	47.1	1	4	315	0.01	30.120 
22:50	47.4	47.4	47.4	96	46.3	1	3	315	0.00	30.123 
22:55	47.1	47.1	47.1	96	46.0	1	3	292	0.01	30.124 
23:00	46.7	46.7	46.7	96	45.6	1	3	270	0.00	30.123 
23:05	46.1	46.1	46.1	95	44.7	1	5	270	0.01	30.123 
23:10	45.8	45.8	45.8	95	44.4	1	4	270	0.01	30.122 
23:15	45.7	45.7	45.7	95	44.4	0	2	292	0.01	30.121 
23:20	45.4	45.4	45.4	95	44.1	0	2	292	0.00	30.123 
23:25	45.4	45.4	45.4	95	44.1	0	2	292	0.00	30.123 
23:30	45.2	45.2	45.2	95	43.9	0	2	292	0.01	30.123 
23:35	45.1	45.1	45.1	96	44.0	0	2	292	0.00	30.123 
23:40	45.1	45.1	45.1	96	44.0	0	2	292	0.00	30.124 
23:45	44.9	44.9	44.9	96	43.8	0	3	292	0.01	30.122 
23:50	44.9	44.9	44.9	96	43.8	0	1	292	0.00	30.123 
23:55	44.8	44.8	44.8	96	43.7	0	3	248	0.00	30.122 

CoCoRaHS
IN-AL-39
A2 Web Hosting
Creative Commons License
GoDaddy
Look for:

loaded 2017-10-17 22:15:22 • last modified 2010-11-18 10:43:29
Privacy PolicyDisclaimer
• wx.awcolley.com is powered by PmWiki v.2002016 •
• all content (unless otherwise noted) © 2017 A W Colley